Time;durP1;ratioP1;P1;durP2;ratioP2;P2;SDS_P1;SDS_P2;PMS_P1;PMS_P2;Temp;Humidity;BMP_temperature;BMP_pressure;BME280_temperature;BME280_humidity;BME280_pressure;Samples;Min_cycle;Max_cycle;Signal;HPM_P1;HPM_P2
2022/10/20 00:01:49;;;;;;;0.60;0.60;;;8.10;99.90;;;;;;5044695;27;20078;-82
2022/10/20 00:04:15;;;;;;;0.60;0.60;;;8.10;99.90;;;;;;5042215;27;20668;-81
2022/10/20 00:06:40;;;;;;;0.60;0.60;;;8.10;99.90;;;;;;5044491;27;20707;-81
2022/10/20 00:09:06;;;;;;;0.63;0.63;;;8.10;99.90;;;;;;5044930;27;20505;-81
2022/10/20 00:11:32;;;;;;;0.70;0.70;;;8.00;99.90;;;;;;5053307;27;20047;-82
2022/10/20 00:14:00;;;;;;;0.60;0.60;;;8.20;99.90;;;;;;5056963;27;20831;-81
2022/10/20 00:16:28;;;;;;;0.63;0.63;;;8.00;99.90;;;;;;5062464;27;20106;-82
2022/10/20 00:18:55;;;;;;;0.60;0.60;;;8.00;99.90;;;;;;5053426;27;20042;-81
2022/10/20 00:21:25;;;;;;;0.60;0.60;;;7.90;99.90;;;;;;5023552;27;20043;-81
2022/10/20 00:23:51;;;;;;;0.60;0.60;;;8.00;99.90;;;;;;5058702;27;20140;-83
2022/10/20 00:26:23;;;;;;;0.60;0.60;;;7.90;99.90;;;;;;5042832;27;20465;-82
2022/10/20 00:28:49;;;;;;;0.60;0.60;;;7.90;99.90;;;;;;5042611;27;20388;-81
2022/10/20 00:31:20;;;;;;;0.60;0.60;;;8.00;99.90;;;;;;5023745;27;20042;-82
2022/10/20 00:33:46;;;;;;;0.60;0.60;;;7.90;99.90;;;;;;5062945;27;20043;-82
2022/10/20 00:36:17;;;;;;;0.60;0.60;;;7.90;99.90;;;;;;5044153;27;20077;-80
2022/10/20 00:38:46;;;;;;;0.60;0.60;;;7.80;99.90;;;;;;5045418;27;20046;-81
2022/10/20 00:41:14;;;;;;;0.60;0.60;;;7.90;99.90;;;;;;5044790;27;20127;-82
2022/10/20 00:44:25;;;;;;;0.60;0.60;;;7.80;99.90;;;;;;5045439;27;20364;-82
2022/10/20 00:46:50;;;;;;;0.60;0.60;;;7.90;99.90;;;;;;5049815;27;20106;-82
2022/10/20 00:49:25;;;;;;;0.60;0.60;;;7.90;99.90;;;;;;5031461;27;20488;-82
2022/10/20 00:51:53;;;;;;;0.60;0.60;;;7.80;99.90;;;;;;5057798;27;20053;-81
2022/10/20 00:54:32;;;;;;;0.68;0.68;;;7.80;99.90;;;;;;5057721;27;20053;-82
2022/10/20 00:56:59;;;;;;;0.60;0.60;;;7.60;99.90;;;;;;5041011;27;20057;-82
2022/10/20 00:59:30;;;;;;;0.70;0.70;;;7.60;99.90;;;;;;5050587;27;20161;-81
2022/10/20 01:01:58;;;;;;;0.70;0.70;;;7.70;99.90;;;;;;5015188;27;20050;-82
2022/10/20 01:04:26;;;;;;;0.70;0.70;;;7.60;99.90;;;;;;5039883;27;20107;-81
2022/10/20 01:06:53;;;;;;;0.60;0.60;;;7.50;99.90;;;;;;5057948;27;20042;-82
2022/10/20 01:09:19;;;;;;;0.60;0.60;;;7.60;99.90;;;;;;5038403;27;20248;-82
2022/10/20 01:11:47;;;;;;;0.63;0.63;;;7.50;99.90;;;;;;5042683;27;20059;-82
2022/10/20 01:14:22;;;;;;;0.60;0.60;;;7.50;99.90;;;;;;5040374;27;20054;-82
2022/10/20 01:17:05;;;;;;;0.60;0.60;;;7.40;99.90;;;;;;5054861;27;20938;-82
2022/10/20 01:19:49;;;;;;;0.60;0.60;;;7.30;99.90;;;;;;5040405;27;21210;-82
2022/10/20 01:22:21;;;;;;;0.60;0.60;;;7.40;99.90;;;;;;5038329;27;20042;-82
2022/10/20 01:25:18;;;;;;;0.60;0.60;;;7.30;99.90;;;;;;5056242;27;20825;-82
2022/10/20 01:27:51;;;;;;;0.60;0.60;;;7.30;99.90;;;;;;5031982;27;20435;-82
2022/10/20 01:30:21;;;;;;;0.70;0.70;;;7.30;99.90;;;;;;5053592;27;20046;-81
2022/10/20 01:32:58;;;;;;;0.60;0.60;;;7.40;99.90;;;;;;5053244;27;20522;-82
2022/10/20 01:35:50;;;;;;;0.60;0.60;;;7.40;99.90;;;;;;5040206;27;20050;-83
2022/10/20 01:38:31;;;;;;;0.60;0.60;;;7.30;99.90;;;;;;5062974;27;20511;-82
2022/10/20 01:41:22;;;;;;;0.60;0.60;;;7.30;99.90;;;;;;5048161;27;20054;-82
2022/10/20 01:43:49;;;;;;;0.60;0.60;;;7.30;99.90;;;;;;5012573;27;20079;-82
2022/10/20 01:46:18;;;;;;;0.60;0.60;;;7.30;99.90;;;;;;5030260;27;20083;-82
2022/10/20 01:48:46;;;;;;;0.68;0.68;;;7.30;99.90;;;;;;5066482;27;20051;-82
2022/10/20 01:51:13;;;;;;;0.60;0.60;;;7.30;99.90;;;;;;5028343;28;20055;-82
2022/10/20 01:53:39;;;;;;;0.70;0.70;;;7.30;99.90;;;;;;5006927;28;20047;-82
2022/10/20 01:56:11;;;;;;;0.60;0.60;;;7.40;99.90;;;;;;5024275;28;20543;-82
2022/10/20 01:59:13;;;;;;;0.70;0.70;;;7.40;99.90;;;;;;5009119;28;20047;-82
2022/10/20 02:02:07;;;;;;;0.60;0.60;;;7.40;99.90;;;;;;5020893;28;20555;-82
2022/10/20 02:05:09;;;;;;;0.60;0.60;;;7.30;99.90;;;;;;5025101;28;20078;-82
2022/10/20 02:07:35;;;;;;;0.60;0.60;;;7.40;99.90;;;;;;5024539;28;20952;-82
2022/10/20 02:10:08;;;;;;;0.60;0.60;;;7.40;99.90;;;;;;5028590;28;20043;-83
2022/10/20 02:12:39;;;;;;;0.60;0.60;;;7.40;99.90;;;;;;5031569;28;20058;-83
2022/10/20 02:15:08;;;;;;;0.60;0.60;;;7.40;99.90;;;;;;5031648;28;20093;-82
2022/10/20 02:17:36;;;;;;;0.70;0.70;;;7.30;99.90;;;;;;5029599;28;20041;-82
2022/10/20 02:20:05;;;;;;;0.60;0.60;;;7.30;99.90;;;;;;5045355;27;20054;-82
2022/10/20 02:22:31;;;;;;;0.60;0.60;;;7.30;99.90;;;;;;5025726;28;20055;-82
2022/10/20 02:24:58;;;;;;;0.60;0.60;;;7.30;99.90;;;;;;5020567;28;20524;-82
2022/10/20 02:27:31;;;;;;;0.60;0.60;;;7.20;99.90;;;;;;5023541;28;20744;-82
2022/10/20 02:30:10;;;;;;;0.60;0.60;;;7.20;99.90;;;;;;5041443;28;20089;-82
2022/10/20 02:32:39;;;;;;;0.63;0.63;;;7.30;99.90;;;;;;5021538;28;20378;-82
2022/10/20 02:35:08;;;;;;;0.60;0.60;;;7.20;99.90;;;;;;5025180;28;20051;-82
2022/10/20 02:37:34;;;;;;;0.60;0.60;;;7.20;99.90;;;;;;5026660;28;20208;-82
2022/10/20 02:40:01;;;;;;;0.70;0.70;;;7.20;99.90;;;;;;4984963;28;20055;-83
2022/10/20 02:42:27;;;;;;;0.60;0.60;;;7.20;99.90;;;;;;5027967;28;20474;-82
2022/10/20 02:44:54;;;;;;;0.70;0.70;;;7.30;99.90;;;;;;4995433;28;20044;-82
2022/10/20 02:47:21;;;;;;;0.65;0.65;;;7.20;99.90;;;;;;5021754;28;20279;-82
2022/10/20 02:49:47;;;;;;;0.60;0.60;;;7.20;99.90;;;;;;5022305;27;20065;-81
2022/10/20 02:52:13;;;;;;;0.60;0.60;;;7.20;99.90;;;;;;5036023;27;20088;-82
2022/10/20 02:54:41;;;;;;;0.75;0.75;;;7.20;99.90;;;;;;5038264;27;20116;-82
2022/10/20 02:57:07;;;;;;;0.60;0.60;;;7.20;99.90;;;;;;5041054;27;20581;-82
2022/10/20 02:59:32;;;;;;;0.70;0.70;;;7.30;99.90;;;;;;5038286;27;20122;-83
2022/10/20 03:01:58;;;;;;;0.60;0.60;;;7.30;99.90;;;;;;5024139;28;20804;-82
2022/10/20 03:04:24;;;;;;;0.60;0.60;;;7.30;99.90;;;;;;5031016;27;20107;-81
2022/10/20 03:06:50;;;;;;;0.60;0.60;;;7.20;99.90;;;;;;5043430;28;20493;-82
2022/10/20 03:09:16;;;;;;;0.70;0.70;;;7.30;99.90;;;;;;5034441;28;20054;-82
2022/10/20 03:11:42;;;;;;;0.70;0.70;;;7.30;99.90;;;;;;5037705;28;20095;-83
2022/10/20 03:14:10;;;;;;;0.60;0.60;;;7.30;99.90;;;;;;5030423;28;20059;-82
2022/10/20 03:16:36;;;;;;;0.70;0.70;;;7.20;99.90;;;;;;5018308;28;20051;-82
2022/10/20 03:19:02;;;;;;;0.70;0.70;;;7.20;99.90;;;;;;5024189;28;20043;-82
2022/10/20 03:21:28;;;;;;;0.70;0.70;;;7.20;99.90;;;;;;5045845;28;20048;-82
2022/10/20 03:23:54;;;;;;;0.60;0.60;;;7.20;99.90;;;;;;5043440;28;20046;-82
2022/10/20 03:26:20;;;;;;;0.70;0.70;;;7.30;99.90;;;;;;5032648;27;20151;-81
2022/10/20 03:28:46;;;;;;;0.60;0.60;;;7.20;99.90;;;;;;5046098;28;20051;-81
2022/10/20 03:31:13;;;;;;;0.60;0.60;;;7.20;99.90;;;;;;5043430;27;20412;-82
2022/10/20 03:33:38;;;;;;;0.70;0.70;;;7.20;99.90;;;;;;5043123;27;20070;-82
2022/10/20 03:36:05;;;;;;;0.60;0.60;;;7.20;99.90;;;;;;5043087;27;20213;-82
2022/10/20 03:38:36;;;;;;;0.70;0.70;;;7.20;99.90;;;;;;5023420;27;20051;-82
2022/10/20 03:41:04;;;;;;;0.60;0.60;;;7.20;99.90;;;;;;5042095;27;20047;-82
2022/10/20 03:43:33;;;;;;;0.68;0.68;;;7.20;99.90;;;;;;5049788;27;20054;-82
2022/10/20 03:46:07;;;;;;;0.60;0.60;;;7.20;99.90;;;;;;5051204;27;20129;-82
2022/10/20 03:48:34;;;;;;;0.60;0.60;;;7.20;99.90;;;;;;5045383;27;20578;-82
2022/10/20 03:51:02;;;;;;;0.63;0.63;;;7.20;99.90;;;;;;5062885;27;20982;-82
2022/10/20 03:53:28;;;;;;;0.60;0.60;;;7.10;99.90;;;;;;5067918;27;20133;-82
2022/10/20 03:55:54;;;;;;;0.65;0.65;;;7.00;99.90;;;;;;5030297;27;20066;-82
2022/10/20 03:58:20;;;;;;;0.68;0.68;;;7.10;99.90;;;;;;5049586;27;20047;-82
2022/10/20 04:00:48;;;;;;;0.60;0.60;;;7.00;99.90;;;;;;5029768;27;20130;-81
2022/10/20 04:03:15;;;;;;;0.60;0.60;;;7.00;99.90;;;;;;5041256;27;20050;-82
2022/10/20 04:05:41;;;;;;;0.70;0.70;;;7.00;99.90;;;;;;5057378;27;20055;-81
2022/10/20 04:08:06;;;;;;;0.60;0.60;;;7.00;99.90;;;;;;5061864;27;20609;-82
2022/10/20 04:10:33;;;;;;;0.65;0.65;;;7.00;99.90;;;;;;5061485;27;20118;-82
2022/10/20 04:13:00;;;;;;;0.70;0.70;;;6.90;99.90;;;;;;5039980;27;20082;-81
2022/10/20 04:15:26;;;;;;;0.60;0.60;;;6.90;99.90;;;;;;5046085;27;20055;-82
2022/10/20 04:17:52;;;;;;;0.60;0.60;;;6.90;99.90;;;;;;5034488;27;20053;-82
2022/10/20 04:20:18;;;;;;;0.60;0.60;;;6.90;99.90;;;;;;5046494;27;20153;-82
2022/10/20 04:22:45;;;;;;;0.60;0.60;;;6.90;99.90;;;;;;5049394;27;20126;-82
2022/10/20 04:25:11;;;;;;;0.65;0.65;;;6.80;99.90;;;;;;5060668;27;20051;-81
2022/10/20 04:27:39;;;;;;;0.60;0.60;;;6.80;99.90;;;;;;5046447;27;20057;-82
2022/10/20 04:30:08;;;;;;;0.60;0.60;;;6.90;99.90;;;;;;5009814;27;20835;-82
2022/10/20 04:32:38;;;;;;;0.60;0.60;;;6.90;99.90;;;;;;5008917;27;20049;-82
2022/10/20 04:35:04;;;;;;;0.60;0.60;;;6.90;99.90;;;;;;5043698;27;20061;-82
2022/10/20 04:37:30;;;;;;;0.60;0.60;;;7.00;99.90;;;;;;5038047;27;20043;-82
2022/10/20 04:39:58;;;;;;;0.70;0.70;;;6.80;99.90;;;;;;5037935;27;20463;-82
2022/10/20 04:42:24;;;;;;;0.68;0.68;;;6.90;99.90;;;;;;5037794;27;20729;-82
2022/10/20 04:44:53;;;;;;;0.70;0.70;;;6.90;99.90;;;;;;5040036;27;20329;-82
2022/10/20 04:47:21;;;;;;;0.60;0.60;;;6.80;99.90;;;;;;5061452;27;20998;-82
2022/10/20 04:49:47;;;;;;;0.70;0.70;;;6.90;99.90;;;;;;5023674;27;20051;-82
2022/10/20 04:52:14;;;;;;;0.60;0.60;;;6.80;99.90;;;;;;5021777;27;20081;-82
2022/10/20 04:54:39;;;;;;;0.60;0.60;;;6.80;99.90;;;;;;5035252;27;20038;-82
2022/10/20 04:57:06;;;;;;;0.60;0.60;;;6.90;99.90;;;;;;5022719;27;20046;-82
2022/10/20 04:59:32;;;;;;;0.60;0.60;;;6.80;99.90;;;;;;5026574;27;20042;-82
2022/10/20 05:01:58;;;;;;;0.60;0.60;;;6.80;99.90;;;;;;5058278;27;20671;-83
2022/10/20 05:04:24;;;;;;;0.60;0.60;;;6.80;99.90;;;;;;5066420;27;20076;-82
2022/10/20 05:06:59;;;;;;;0.60;0.60;;;6.80;99.90;;;;;;5062142;27;20933;-82
2022/10/20 05:09:25;;;;;;;0.60;0.60;;;6.80;99.90;;;;;;5047660;27;20592;-82
2022/10/20 05:11:53;;;;;;;0.70;0.70;;;6.80;99.90;;;;;;5039509;27;20055;-82
2022/10/20 05:14:19;;;;;;;0.60;0.60;;;6.90;99.90;;;;;;5055946;27;20550;-82
2022/10/20 05:16:46;;;;;;;0.60;0.60;;;6.80;99.90;;;;;;5050719;27;20047;-82
2022/10/20 05:19:12;;;;;;;0.60;0.60;;;6.80;99.90;;;;;;5062974;27;20091;-82
2022/10/20 05:21:38;;;;;;;0.70;0.70;;;6.70;99.90;;;;;;5061749;27;20408;-81
2022/10/20 05:24:04;;;;;;;0.70;0.70;;;6.70;99.90;;;;;;5064379;27;20502;-82
2022/10/20 05:26:36;;;;;;;0.60;0.60;;;6.70;99.90;;;;;;5048361;27;20051;-83
2022/10/20 05:29:07;;;;;;;0.60;0.60;;;6.60;99.90;;;;;;5014362;27;20366;-82
2022/10/20 05:31:39;;;;;;;0.70;0.70;;;6.60;99.90;;;;;;5037397;27;20046;-82
2022/10/20 05:34:06;;;;;;;0.60;0.60;;;6.70;99.90;;;;;;5041631;27;20035;-82
2022/10/20 05:36:32;;;;;;;0.60;0.60;;;6.60;99.90;;;;;;5037174;27;20054;-83
2022/10/20 05:38:58;;;;;;;0.70;0.70;;;6.60;99.90;;;;;;5030351;27;21030;-82
2022/10/20 05:41:31;;;;;;;0.70;0.70;;;6.60;99.90;;;;;;5065216;27;20043;-82
2022/10/20 05:44:01;;;;;;;0.70;0.70;;;6.60;99.90;;;;;;5046819;27;20119;-81
2022/10/20 05:46:30;;;;;;;0.60;0.60;;;6.60;99.90;;;;;;5030100;27;21199;-82
2022/10/20 05:49:01;;;;;;;0.70;0.70;;;6.60;99.90;;;;;;5062444;27;20245;-81
2022/10/20 05:51:33;;;;;;;0.60;0.60;;;6.70;99.90;;;;;;5056952;27;20542;-82
2022/10/20 05:53:59;;;;;;;0.60;0.60;;;6.60;99.90;;;;;;5058715;27;20039;-82
2022/10/20 05:56:27;;;;;;;0.60;0.60;;;6.60;99.90;;;;;;5054375;27;20649;-82
2022/10/20 05:58:53;;;;;;;0.60;0.60;;;6.60;99.90;;;;;;5046266;27;20138;-81
2022/10/20 06:01:37;;;;;;;0.70;0.70;;;6.70;99.90;;;;;;5046279;27;20043;-82
2022/10/20 06:04:03;;;;;;;;;;;6.60;99.90;;;;;;5045074;27;20223;-81
2022/10/20 06:06:30;;;;;;;0.60;0.60;;;6.60;99.90;;;;;;5043500;27;19923;-82
2022/10/20 06:08:58;;;;;;;0.63;0.63;;;6.70;99.90;;;;;;5055222;27;20531;-82
2022/10/20 06:11:24;;;;;;;0.60;0.60;;;6.60;99.90;;;;;;5061674;27;20440;-82
2022/10/20 06:13:51;;;;;;;0.60;0.60;;;6.70;99.90;;;;;;5063210;27;20476;-82
2022/10/20 06:16:20;;;;;;;0.60;0.60;;;6.70;99.90;;;;;;5028143;27;20599;-82
2022/10/20 06:18:47;;;;;;;0.60;0.60;;;6.70;99.90;;;;;;5042853;27;20401;-83
2022/10/20 06:21:17;;;;;;;0.70;0.70;;;6.80;99.90;;;;;;5025510;27;20054;-82
2022/10/20 06:23:49;;;;;;;0.60;0.60;;;6.70;99.90;;;;;;5057114;27;20533;-83
2022/10/20 06:26:24;;;;;;;0.60;0.60;;;6.80;99.90;;;;;;5024435;27;20467;-82
2022/10/20 06:28:55;;;;;;;0.68;0.68;;;6.80;99.90;;;;;;5039476;27;20057;-82
2022/10/20 06:31:23;;;;;;;0.63;0.63;;;6.90;99.90;;;;;;5045690;27;20058;-82
2022/10/20 06:33:50;;;;;;;0.60;0.60;;;6.90;99.90;;;;;;5063771;27;20128;-82
2022/10/20 06:36:18;;;;;;;0.70;0.70;;;7.00;99.90;;;;;;5042552;27;20398;-81
2022/10/20 06:38:44;;;;;;;0.70;0.70;;;7.00;99.90;;;;;;5080105;27;20122;-83
2022/10/20 06:41:14;;;;;;;0.70;0.70;;;7.00;99.90;;;;;;5038322;27;20254;-85
2022/10/20 06:43:44;;;;;;;0.70;0.70;;;7.10;99.90;;;;;;5039798;27;20047;-84
2022/10/20 06:46:13;;;;;;;0.60;0.60;;;7.10;99.90;;;;;;5051498;27;20043;-84
2022/10/20 06:48:39;;;;;;;0.63;0.63;;;7.10;99.90;;;;;;5036183;27;20054;-82
2022/10/20 06:51:14;;;;;;;0.70;0.70;;;7.10;99.90;;;;;;5049030;27;20134;-82
2022/10/20 06:53:41;;;;;;;0.65;0.65;;;7.10;99.90;;;;;;5042924;27;20446;-82
2022/10/20 06:56:14;;;;;;;0.70;0.70;;;7.10;99.90;;;;;;5055888;27;20399;-82
2022/10/20 06:58:42;;;;;;;0.63;0.63;;;7.10;99.90;;;;;;5017167;27;20507;-84
2022/10/20 07:01:27;;;;;;;0.60;0.60;;;7.20;99.90;;;;;;5039348;27;20516;-83
2022/10/20 07:03:56;;;;;;;0.60;0.60;;;7.20;99.90;;;;;;5033955;27;20335;-84
2022/10/20 07:06:25;;;;;;;0.63;0.63;;;7.20;99.90;;;;;;5020670;27;20133;-85
2022/10/20 07:08:53;;;;;;;0.60;0.60;;;7.30;99.90;;;;;;5070173;27;20131;-86
2022/10/20 07:11:20;;;;;;;0.70;0.70;;;7.30;99.90;;;;;;5022810;27;20111;-83
2022/10/20 07:13:49;;;;;;;0.70;0.70;;;7.30;99.90;;;;;;5028567;27;20182;-83
2022/10/20 07:16:18;;;;;;;0.60;0.60;;;7.30;99.90;;;;;;5041488;27;20042;-85
2022/10/20 07:18:44;;;;;;;0.60;0.60;;;7.30;99.90;;;;;;5044228;27;20488;-82
2022/10/20 07:21:25;;;;;;;0.70;0.70;;;7.40;99.90;;;;;;5035037;27;20183;-79
2022/10/20 07:23:54;;;;;;;0.60;0.60;;;7.40;99.90;;;;;;5069437;27;20051;-84
2022/10/20 07:26:22;;;;;;;0.60;0.60;;;7.50;99.90;;;;;;5058811;27;20586;-82
2022/10/20 07:28:50;;;;;;;0.60;0.60;;;7.50;99.90;;;;;;5064745;27;20042;-83
2022/10/20 07:31:22;;;;;;;0.70;0.70;;;7.60;99.90;;;;;;5027717;27;20053;-83
2022/10/20 07:33:48;;;;;;;0.60;0.60;;;7.60;99.90;;;;;;5047861;27;20754;-83
2022/10/20 07:36:23;;;;;;;0.68;0.68;;;7.70;99.90;;;;;;5031478;27;20519;-83
2022/10/20 07:38:55;;;;;;;0.70;0.70;;;7.70;99.90;;;;;;5042851;27;20205;-83
2022/10/20 07:41:22;;;;;;;0.60;0.60;;;7.80;99.90;;;;;;5024181;27;20378;-83
2022/10/20 07:43:48;;;;;;;0.70;0.70;;;7.80;99.90;;;;;;5049181;27;20160;-82
2022/10/20 07:46:15;;;;;;;0.60;0.60;;;7.90;99.90;;;;;;5049005;27;20179;-81
2022/10/20 07:48:41;;;;;;;0.60;0.60;;;8.00;99.90;;;;;;5054217;27;20630;-82
2022/10/20 07:51:21;;;;;;;0.60;0.60;;;8.00;99.90;;;;;;5042193;27;20051;-82
2022/10/20 07:53:48;;;;;;;0.70;0.70;;;8.10;99.90;;;;;;5043000;27;20103;-84
2022/10/20 07:56:16;;;;;;;0.60;0.60;;;8.10;99.90;;;;;;5038737;27;20058;-83
2022/10/20 07:58:42;;;;;;;0.60;0.60;;;8.10;99.90;;;;;;5061646;27;20551;-83
2022/10/20 08:01:09;;;;;;;0.60;0.60;;;8.20;99.90;;;;;;5042301;27;20050;-84
2022/10/20 08:03:36;;;;;;;0.60;0.60;;;8.20;99.90;;;;;;5025545;27;20104;-81
2022/10/20 08:06:02;;;;;;;0.60;0.60;;;8.20;99.90;;;;;;5053361;27;20213;-81
2022/10/20 08:08:28;;;;;;;0.60;0.60;;;8.30;99.90;;;;;;5030766;27;20469;-83
2022/10/20 08:10:56;;;;;;;0.60;0.60;;;8.40;99.90;;;;;;5023618;27;20168;-84
2022/10/20 08:13:26;;;;;;;0.60;0.60;;;8.40;99.90;;;;;;5047427;27;20046;-85
2022/10/20 08:15:55;;;;;;;0.60;0.60;;;8.50;99.90;;;;;;5026521;27;20596;-84
2022/10/20 08:18:21;;;;;;;0.60;0.60;;;8.60;99.90;;;;;;5041708;27;20251;-83
2022/10/20 08:20:47;;;;;;;0.60;0.60;;;8.70;99.90;;;;;;5025194;27;20491;-81
2022/10/20 08:23:14;;;;;;;0.60;0.60;;;8.70;99.90;;;;;;5044920;27;20052;-81
2022/10/20 08:25:41;;;;;;;0.60;0.60;;;8.80;99.90;;;;;;5021288;27;20043;-81
2022/10/20 08:28:07;;;;;;;0.60;0.60;;;8.90;99.90;;;;;;5059699;27;20046;-81
2022/10/20 08:30:34;;;;;;;0.70;0.70;;;9.10;99.90;;;;;;5064440;27;20126;-81
2022/10/20 08:33:00;;;;;;;0.70;0.70;;;9.00;99.90;;;;;;5044218;27;20050;-82
2022/10/20 08:35:26;;;;;;;0.60;0.60;;;9.20;99.90;;;;;;5046731;27;20089;-82
2022/10/20 08:37:53;;;;;;;0.60;0.60;;;9.20;99.90;;;;;;5042329;27;20278;-83
2022/10/20 08:40:24;;;;;;;0.60;0.60;;;9.40;99.90;;;;;;5027776;27;20505;-83
2022/10/20 08:42:51;;;;;;;0.60;0.60;;;9.50;99.90;;;;;;5052328;27;20427;-81
2022/10/20 08:45:25;;;;;;;0.60;0.60;;;9.60;99.90;;;;;;5057935;27;20126;-84
2022/10/20 08:47:55;;;;;;;0.60;0.60;;;9.70;99.90;;;;;;5042278;27;20921;-84
2022/10/20 08:50:26;;;;;;;0.60;0.60;;;9.90;99.90;;;;;;5061329;27;20374;-84
2022/10/20 08:52:56;;;;;;;0.60;0.60;;;9.90;99.90;;;;;;5047457;27;20651;-82
2022/10/20 08:55:28;;;;;;;0.60;0.60;;;10.20;99.90;;;;;;5040028;27;20246;-82
2022/10/20 08:58:04;;;;;;;0.60;0.60;;;10.30;99.90;;;;;;5040684;27;20112;-84
2022/10/20 09:00:34;;;;;;;0.60;0.60;;;10.40;99.90;;;;;;5011437;27;20366;-82
2022/10/20 09:03:23;;;;;;;0.60;0.60;;;10.20;99.90;;;;;;5028616;27;20077;-83
2022/10/20 09:06:11;;;;;;;0.60;0.60;;;10.20;99.90;;;;;;5049469;27;20046;-82
2022/10/20 09:08:42;;;;;;;0.60;0.60;;;10.10;99.90;;;;;;5027719;27;20050;-80
2022/10/20 09:11:15;;;;;;;0.60;0.60;;;10.10;99.90;;;;;;5045799;27;20766;-84
2022/10/20 09:13:41;;;;;;;0.60;0.60;;;10.20;99.90;;;;;;5059708;27;20078;-83
2022/10/20 09:16:32;;;;;;;0.60;0.60;;;10.30;99.90;;;;;;5032359;27;20050;-83
2022/10/20 09:19:21;;;;;;;0.60;0.60;;;10.20;99.90;;;;;;5053580;27;20332;-83
2022/10/20 09:21:51;;;;;;;0.60;0.60;;;10.40;99.90;;;;;;5041397;27;20129;-81
2022/10/20 09:24:19;;;;;;;0.60;0.60;;;10.30;99.90;;;;;;5040778;27;20050;-79
2022/10/20 09:26:49;;;;;;;0.60;0.60;;;10.50;99.90;;;;;;5024442;27;20051;-84
2022/10/20 09:29:18;;;;;;;0.60;0.60;;;10.60;99.90;;;;;;5048282;27;20051;-83
2022/10/20 09:31:48;;;;;;;0.60;0.60;;;10.60;99.90;;;;;;5056139;27;20062;-82
2022/10/20 09:34:30;;;;;;;0.60;0.60;;;10.60;99.90;;;;;;5038600;27;20516;-84
2022/10/20 09:37:05;;;;;;;0.60;0.60;;;10.60;99.90;;;;;;5039843;27;20482;-82
2022/10/20 09:39:50;;;;;;;0.60;0.60;;;10.80;99.90;;;;;;5041631;27;20057;-84
2022/10/20 09:42:29;;;;;;;0.60;0.60;;;10.80;99.90;;;;;;5050006;27;20659;-82
2022/10/20 09:45:05;;;;;;;0.60;0.60;;;10.80;99.90;;;;;;5073845;27;20210;-83
2022/10/20 09:47:32;;;;;;;0.60;0.60;;;11.00;99.90;;;;;;5048064;27;20046;-82
2022/10/20 09:50:18;;;;;;;0.60;0.60;;;11.00;99.90;;;;;;5066014;27;21101;-81
2022/10/20 09:52:48;;;;;;;0.60;0.60;;;11.20;99.90;;;;;;5058056;27;20512;-83
2022/10/20 09:55:25;;;;;;;0.60;0.60;;;11.30;99.90;;;;;;5067595;27;20039;-81
2022/10/20 09:57:54;;;;;;;0.60;0.60;;;11.30;99.90;;;;;;5060952;27;20609;-83
2022/10/20 10:00:36;;;;;;;0.60;0.60;;;11.50;99.90;;;;;;5017280;27;20095;-82
2022/10/20 10:03:21;;;;;;;0.60;0.60;;;11.50;99.90;;;;;;5026138;27;20054;-83
2022/10/20 10:05:58;;;;;;;0.60;0.60;;;11.50;99.90;;;;;;5033006;27;20611;-80
2022/10/20 10:08:46;;;;;;;0.60;0.60;;;11.40;99.90;;;;;;5064066;27;20125;-84
2022/10/20 10:11:18;;;;;;;0.60;0.60;;;11.60;99.90;;;;;;5046110;27;20050;-83
2022/10/20 10:13:51;;;;;;;0.60;0.60;;;11.60;99.90;;;;;;5049504;27;20981;-83
2022/10/20 10:16:26;;;;;;;0.60;0.60;;;12.10;99.90;;;;;;5029477;27;20360;-83
2022/10/20 10:19:03;;;;;;;0.60;0.60;;;12.20;99.90;;;;;;5045479;27;20169;-83
2022/10/20 10:21:43;;;;;;;0.60;0.60;;;12.40;99.90;;;;;;5046313;27;20512;-84
2022/10/20 10:24:45;;;;;;;0.60;0.60;;;12.30;99.90;;;;;;5042442;27;20183;-84
2022/10/20 10:27:28;;;;;;;0.60;0.60;;;12.60;99.90;;;;;;5051191;27;20081;-83
2022/10/20 10:30:15;;;;;;;0.60;0.60;;;12.90;99.90;;;;;;5040284;27;20496;-83
2022/10/20 10:32:46;;;;;;;0.60;0.60;;;12.80;99.90;;;;;;5016381;27;20046;-83
2022/10/20 10:35:24;;;;;;;0.57;0.57;;;13.00;99.90;;;;;;5053144;27;20041;-81
2022/10/20 10:37:52;;;;;;;0.50;0.50;;;12.80;99.90;;;;;;5060782;27;20948;-81
2022/10/20 10:40:39;;;;;;;0.60;0.60;;;12.90;99.90;;;;;;5044572;27;20547;-81
2022/10/20 10:43:38;;;;;;;0.50;0.50;;;13.10;99.90;;;;;;5004052;27;20069;-81
2022/10/20 10:46:18;;;;;;;0.50;0.50;;;13.10;99.90;;;;;;5043480;27;20039;-81
2022/10/20 10:49:09;;;;;;;0.50;0.50;;;13.20;99.90;;;;;;5040286;27;20055;-83
2022/10/20 10:52:08;;;;;;;0.50;0.50;;;13.00;99.90;;;;;;5026750;28;20415;-81
2022/10/20 10:55:02;;;;;;;0.60;0.60;;;12.80;99.90;;;;;;5005654;28;20649;-82
2022/10/20 10:57:42;;;;;;;0.50;0.50;;;13.10;99.90;;;;;;5031391;28;20062;-84
2022/10/20 11:00:18;;;;;;;0.50;0.50;;;13.10;99.90;;;;;;5028486;28;20379;-81
2022/10/20 11:03:14;;;;;;;0.50;0.50;;;13.30;99.90;;;;;;5022989;28;20146;-79
2022/10/20 11:05:55;;;;;;;0.50;0.50;;;13.60;99.90;;;;;;5020688;28;20081;-81
2022/10/20 11:08:34;;;;;;;0.50;0.50;;;13.50;99.90;;;;;;5024572;28;21109;-82
2022/10/20 11:11:25;;;;;;;0.50;0.50;;;13.70;99.90;;;;;;5001019;28;20685;-82
2022/10/20 11:14:14;;;;;;;0.50;0.50;;;13.60;99.90;;;;;;5011662;28;20110;-82
2022/10/20 11:16:46;;;;;;;0.50;0.50;;;13.50;99.90;;;;;;5018255;28;20156;-83
2022/10/20 11:19:45;;;;;;;0.50;0.50;;;13.50;99.90;;;;;;5008515;28;20055;-82
2022/10/20 11:22:19;;;;;;;0.50;0.50;;;13.50;99.90;;;;;;5012663;28;20481;-82
2022/10/20 11:25:03;;;;;;;0.50;0.50;;;13.40;99.90;;;;;;5017056;28;20059;-80
2022/10/20 11:27:35;;;;;;;0.50;0.50;;;13.50;99.90;;;;;;5017132;28;20072;-83
2022/10/20 11:30:17;;;;;;;0.50;0.50;;;13.40;99.90;;;;;;5025167;28;20105;-81
2022/10/20 11:33:05;;;;;;;0.60;0.60;;;13.40;99.90;;;;;;5025760;28;20166;-82
2022/10/20 11:35:53;;;;;;;0.50;0.50;;;13.50;99.90;;;;;;5036455;28;20051;-81
2022/10/20 11:38:30;;;;;;;0.50;0.50;;;13.50;99.90;;;;;;5026447;28;20556;-82
2022/10/20 11:40:58;;;;;;;0.50;0.50;;;13.50;99.90;;;;;;5028907;28;20231;-82
2022/10/20 11:43:24;;;;;;;0.50;0.50;;;13.50;99.90;;;;;;5026439;28;20519;-81
2022/10/20 11:46:04;;;;;;;0.50;0.50;;;13.40;99.90;;;;;;5018793;28;20101;-79
2022/10/20 11:48:49;;;;;;;0.50;0.50;;;13.40;99.90;;;;;;5023981;28;20056;-80
2022/10/20 11:51:32;;;;;;;0.60;0.60;;;13.30;99.90;;;;;;5059728;27;20119;-82
2022/10/20 11:54:01;;;;;;;0.60;0.60;;;13.30;99.90;;;;;;5034486;27;20050;-80
2022/10/20 11:56:33;;;;;;;0.50;0.50;;;13.30;99.90;;;;;;5043965;27;20152;-84
2022/10/20 11:59:29;;;;;;;0.50;0.50;;;13.30;99.90;;;;;;5067926;27;20054;-82
2022/10/20 12:02:14;;;;;;;0.50;0.50;;;13.30;99.90;;;;;;5069481;27;20068;-83
2022/10/20 12:05:08;;;;;;;0.60;0.60;;;13.30;99.90;;;;;;5069006;27;20102;-83
2022/10/20 12:07:39;;;;;;;0.50;0.50;;;13.30;99.90;;;;;;5046026;27;20127;-82
2022/10/20 12:10:26;;;;;;;0.50;0.50;;;13.30;99.90;;;;;;5041931;27;20054;-83
2022/10/20 12:12:52;;;;;;;0.50;0.50;;;13.30;99.90;;;;;;5047368;27;20511;-83
2022/10/20 12:15:29;;;;;;;0.60;0.60;;;13.30;99.90;;;;;;5054686;27;20071;-83
2022/10/20 12:18:14;;;;;;;0.60;0.60;;;13.30;99.90;;;;;;5055135;27;20226;-84
2022/10/20 12:20:49;;;;;;;0.50;0.50;;;13.30;99.90;;;;;;5052939;27;20050;-85
2022/10/20 12:23:51;;;;;;;0.50;0.50;;;13.20;99.90;;;;;;5073467;27;20035;-85
2022/10/20 12:27:03;;;;;;;0.50;0.50;;;13.20;99.90;;;;;;5061290;27;20122;-82
2022/10/20 12:29:31;;;;;;;0.55;0.55;;;13.10;99.90;;;;;;5052572;27;20050;-82
2022/10/20 12:32:36;;;;;;;0.50;0.50;;;13.10;99.90;;;;;;5063059;27;20050;-83
2022/10/20 12:35:22;;;;;;;0.60;0.60;;;13.00;99.90;;;;;;5075225;27;20092;-84
2022/10/20 12:38:03;;;;;;;0.50;0.50;;;13.00;99.90;;;;;;5074579;27;20224;-83
2022/10/20 12:40:42;;;;;;;0.60;0.60;;;12.90;99.90;;;;;;5049183;27;20050;-84
2022/10/20 12:43:52;;;;;;;0.50;0.50;;;12.90;99.90;;;;;;5066148;27;20075;-85
2022/10/20 12:46:30;;;;;;;0.60;0.60;;;12.90;99.90;;;;;;5061633;27;20046;-84
2022/10/20 12:49:05;;;;;;;0.50;0.50;;;12.80;99.90;;;;;;5069325;27;20538;-84
2022/10/20 12:51:37;;;;;;;0.60;0.60;;;12.80;99.90;;;;;;5052870;27;20043;-83
2022/10/20 12:54:24;;;;;;;0.60;0.60;;;12.80;99.90;;;;;;5070078;27;20131;-84
2022/10/20 12:56:56;;;;;;;0.52;0.52;;;12.80;99.90;;;;;;5045993;27;20046;-83
2022/10/20 12:59:28;;;;;;;0.60;0.60;;;12.70;99.90;;;;;;5053474;27;20098;-83
2022/10/20 13:02:09;;;;;;;0.60;0.60;;;12.70;99.90;;;;;;5050294;27;20130;-84
2022/10/20 13:04:50;;;;;;;0.60;0.60;;;12.70;99.90;;;;;;5067333;27;20061;-83
2022/10/20 13:07:45;;;;;;;0.60;0.60;;;12.70;99.90;;;;;;5046281;27;20043;-83
2022/10/20 13:10:29;;;;;;;0.60;0.60;;;12.70;99.90;;;;;;5040342;27;20046;-82
2022/10/20 13:13:01;;;;;;;0.60;0.60;;;12.70;99.90;;;;;;5052895;27;20046;-82
2022/10/20 13:15:34;;;;;;;0.60;0.60;;;12.60;99.90;;;;;;5038956;27;20553;-82
2022/10/20 13:18:04;;;;;;;0.60;0.60;;;12.70;99.90;;;;;;5054298;27;20064;-82
2022/10/20 13:20:50;;;;;;;0.60;0.60;;;12.70;99.90;;;;;;5036745;27;20129;-84
2022/10/20 13:23:40;;;;;;;0.60;0.60;;;12.70;99.90;;;;;;5028720;27;20074;-82